Time;durP1;ratioP1;P1;durP2;ratioP2;P2;SDS_P1;SDS_P2;PMS_P1;PMS_P2;Temp;Humidity;BMP_temperature;BMP_pressure;BME280_temperature;BME280_humidity;BME280_pressure;Samples;Min_cycle;Max_cycle;Signal;HPM_P1;HPM_P2
2021/04/29 00:02:01;;;;;;;17.90;11.37;;;13.60;72.80;;;;;;6073758;23;20440;-66
2021/04/29 00:04:27;;;;;;;17.43;11.90;;;13.60;72.20;;;;;;6075005;23;20715;-66
2021/04/29 00:06:53;;;;;;;13.30;11.90;;;13.60;72.10;;;;;;6071133;23;20420;-66
2021/04/29 00:09:21;;;;;;;18.30;12.00;;;13.60;72.30;;;;;;6070765;23;20420;-67
2021/04/29 00:11:48;;;;;;;15.63;12.00;;;13.60;72.70;;;;;;6070957;23;20448;-67
2021/04/29 00:14:14;;;;;;;13.20;10.40;;;13.60;72.70;;;;;;6070916;23;20503;-67
2021/04/29 00:16:41;;;;;;;16.73;11.90;;;13.60;72.80;;;;;;6071933;23;20471;-66
2021/04/29 00:19:08;;;;;;;12.63;10.43;;;13.60;72.90;;;;;;6072199;23;20421;-67
2021/04/29 00:21:34;;;;;;;16.60;11.67;;;13.60;73.10;;;;;;6071937;23;20503;-68
2021/04/29 00:24:01;;;;;;;12.83;10.97;;;13.60;73.30;;;;;;6070968;23;20428;-66
2021/04/29 00:26:27;;;;;;;14.90;11.43;;;13.60;73.50;;;;;;6071436;23;20431;-66
2021/04/29 00:28:57;;;;;;;15.13;11.17;;;13.60;73.40;;;;;;6071220;23;20440;-66
2021/04/29 00:31:24;;;;;;;12.63;10.93;;;13.60;73.50;;;;;;6070530;23;20455;-68
2021/04/29 00:33:50;;;;;;;15.53;12.43;;;13.60;73.50;;;;;;6070694;23;20421;-67
2021/04/29 00:36:19;;;;;;;17.37;12.00;;;13.60;73.60;;;;;;6070963;23;20468;-66
2021/04/29 00:38:45;;;;;;;14.30;11.20;;;13.50;73.70;;;;;;6070025;23;20484;-67
2021/04/29 00:41:11;;;;;;;14.80;12.40;;;13.50;74.00;;;;;;6070654;23;20448;-67
2021/04/29 00:43:37;;;;;;;16.63;12.10;;;13.50;74.20;;;;;;6069936;23;20883;-67
2021/04/29 00:46:04;;;;;;;14.30;11.17;;;13.50;75.20;;;;;;6070762;23;20420;-67
2021/04/29 00:48:31;;;;;;;14.37;11.40;;;13.50;74.50;;;;;;6070480;23;20420;-67
2021/04/29 00:50:59;;;;;;;21.57;11.30;;;13.50;74.70;;;;;;6070858;23;20797;-66
2021/04/29 00:53:37;;;;;;;18.37;12.10;;;13.50;75.10;;;;;;6070211;23;20416;-66
2021/04/29 00:56:05;;;;;;;18.57;11.87;;;13.40;75.00;;;;;;6071711;23;20856;-67
2021/04/29 00:58:31;;;;;;;18.30;11.23;;;13.40;75.60;;;;;;6070343;23;20421;-66
2021/04/29 01:00:57;;;;;;;17.17;11.00;;;13.40;75.80;;;;;;6070473;23;20798;-66
2021/04/29 01:03:33;;;;;;;12.50;10.23;;;13.40;75.90;;;;;;6070212;23;20511;-66
2021/04/29 01:06:06;;;;;;;13.97;11.20;;;13.40;75.90;;;;;;6070379;23;20415;-67
2021/04/29 01:08:39;;;;;;;15.90;12.30;;;13.40;76.10;;;;;;6069918;23;20819;-66
2021/04/29 01:11:13;;;;;;;14.43;11.67;;;13.40;75.90;;;;;;6070311;23;20447;-66
2021/04/29 01:13:46;;;;;;;13.27;11.90;;;13.40;75.90;;;;;;6070581;23;20471;-66
2021/04/29 01:16:12;;;;;;;16.03;11.53;;;13.40;75.90;;;;;;6070599;23;20438;-66
2021/04/29 01:18:40;;;;;;;15.80;11.27;;;13.40;76.00;;;;;;6070339;23;20420;-66
2021/04/29 01:21:13;;;;;;;18.30;12.23;;;13.40;76.30;;;;;;6070101;23;20452;-66
2021/04/29 01:23:55;;;;;;;14.10;10.97;;;13.40;76.30;;;;;;6070116;23;20440;-67
2021/04/29 01:26:40;;;;;;;16.77;12.00;;;13.40;76.40;;;;;;6070598;23;20688;-67
2021/04/29 01:29:09;;;;;;;15.97;12.37;;;13.40;76.60;;;;;;6070455;23;20502;-67
2021/04/29 01:31:37;;;;;;;12.33;11.03;;;13.40;77.60;;;;;;6071747;23;20796;-67
2021/04/29 01:34:09;;;;;;;14.90;11.90;;;13.30;77.10;;;;;;6071991;23;20420;-66
2021/04/29 01:36:37;;;;;;;14.90;11.90;;;13.30;77.10;;;;;;6072141;23;20512;-66
2021/04/29 01:39:07;;;;;;;15.53;11.83;;;13.30;77.50;;;;;;6071688;23;20543;-67
2021/04/29 01:41:37;;;;;;;14.77;11.93;;;13.30;77.40;;;;;;6072753;23;20429;-67
2021/04/29 01:44:04;;;;;;;15.77;12.13;;;13.30;77.70;;;;;;6072235;23;20810;-67
2021/04/29 01:46:32;;;;;;;16.73;12.00;;;13.30;78.00;;;;;;6071752;23;20420;-67
2021/04/29 01:48:58;;;;;;;16.63;11.60;;;13.30;78.30;;;;;;6072306;23;20443;-66
2021/04/29 01:51:25;;;;;;;14.10;11.23;;;13.30;78.60;;;;;;6071821;23;20416;-66
2021/04/29 01:53:51;;;;;;;12.70;10.87;;;13.20;79.00;;;;;;6072212;23;20420;-66
2021/04/29 01:56:19;;;;;;;17.23;13.10;;;13.20;79.10;;;;;;6072063;23;20420;-66
2021/04/29 01:58:46;;;;;;;16.77;11.77;;;13.20;79.60;;;;;;6071750;23;20553;-66
2021/04/29 02:01:13;;;;;;;16.27;12.23;;;13.20;79.50;;;;;;6071771;23;20451;-66
2021/04/29 02:03:39;;;;;;;15.50;11.67;;;13.20;79.30;;;;;;6071966;23;20420;-66
2021/04/29 02:06:09;;;;;;;13.93;11.23;;;13.20;79.30;;;;;;6072905;23;20689;-66
2021/04/29 02:08:36;;;;;;;13.83;11.00;;;13.20;79.60;;;;;;6072100;23;20420;-66
2021/04/29 02:11:04;;;;;;;14.03;12.57;;;13.20;79.90;;;;;;6071993;23;20431;-67
2021/04/29 02:13:31;;;;;;;16.33;11.33;;;13.20;79.80;;;;;;6071714;23;20427;-67
2021/04/29 02:16:05;;;;;;;15.07;12.37;;;13.20;80.30;;;;;;6071597;23;20420;-67
2021/04/29 02:18:33;;;;;;;16.13;11.23;;;13.20;80.70;;;;;;6071486;23;20404;-66
2021/04/29 02:21:03;;;;;;;15.10;11.97;;;13.20;80.70;;;;;;6071644;23;20420;-66
2021/04/29 02:23:30;;;;;;;15.20;12.17;;;13.10;80.80;;;;;;6071729;23;20432;-66
2021/04/29 02:26:00;;;;;;;12.93;10.93;;;13.20;81.10;;;;;;6071741;23;20424;-65
2021/04/29 02:28:28;;;;;;;16.50;11.67;;;13.20;81.30;;;;;;6071222;23;20424;-67
2021/04/29 02:30:55;;;;;;;13.70;11.47;;;13.10;81.60;;;;;;6070879;23;20543;-66
2021/04/29 02:33:23;;;;;;;13.00;10.83;;;13.10;82.10;;;;;;6071590;23;20420;-67
2021/04/29 02:35:52;;;;;;;12.93;11.57;;;13.10;82.50;;;;;;6071699;23;20420;-66
2021/04/29 02:38:19;;;;;;;16.03;11.93;;;13.10;82.60;;;;;;6071553;23;20421;-66
2021/04/29 02:40:46;;;;;;;16.33;12.10;;;13.10;82.70;;;;;;6071004;23;20479;-67
2021/04/29 02:43:14;;;;;;;15.97;12.50;;;13.10;82.80;;;;;;6071328;23;20443;-67
2021/04/29 02:45:41;;;;;;;12.57;10.60;;;13.10;82.80;;;;;;6071469;23;20420;-66
2021/04/29 02:48:09;;;;;;;19.47;13.10;;;13.10;83.00;;;;;;6071163;23;20906;-67
2021/04/29 02:50:37;;;;;;;17.30;11.37;;;13.10;83.30;;;;;;6071687;23;20431;-65
2021/04/29 02:53:04;;;;;;;16.63;12.10;;;13.00;83.30;;;;;;6071491;23;20737;-67
2021/04/29 02:55:30;;;;;;;15.37;11.80;;;13.00;83.50;;;;;;6071205;23;20421;-66
2021/04/29 02:58:00;;;;;;;13.83;10.63;;;13.00;83.70;;;;;;6071378;23;20424;-66
2021/04/29 03:00:29;;;;;;;18.70;11.67;;;13.00;84.20;;;;;;6071887;23;20500;-66
2021/04/29 03:02:55;;;;;;;15.33;11.73;;;13.00;84.70;;;;;;6071618;23;20451;-67
2021/04/29 03:05:27;;;;;;;15.87;10.90;;;13.00;84.80;;;;;;6071105;23;20421;-67
2021/04/29 03:07:55;;;;;;;13.97;11.43;;;13.00;85.20;;;;;;6071555;23;20444;-67
2021/04/29 03:10:24;;;;;;;14.53;11.10;;;13.10;85.40;;;;;;6071204;23;20479;-67
2021/04/29 03:12:50;;;;;;;15.30;11.87;;;13.10;85.50;;;;;;6071259;23;20417;-65
2021/04/29 03:15:17;;;;;;;14.73;10.57;;;13.10;85.60;;;;;;6071370;23;20424;-67
2021/04/29 03:17:43;;;;;;;12.93;10.27;;;13.10;86.00;;;;;;6071448;23;20430;-67
2021/04/29 03:20:10;;;;;;;13.83;10.97;;;13.10;86.40;;;;;;6071539;23;20424;-67
2021/04/29 03:22:41;;;;;;;13.43;10.10;;;13.10;87.00;;;;;;6071266;23;20531;-67
2021/04/29 03:25:09;;;;;;;13.90;10.57;;;13.10;87.00;;;;;;6071645;23;20409;-67
2021/04/29 03:27:35;;;;;;;13.33;11.17;;;13.10;87.80;;;;;;6074078;23;20431;-65
2021/04/29 03:30:02;;;;;;;16.50;12.10;;;13.10;88.40;;;;;;6073501;23;20958;-66
2021/04/29 03:32:28;;;;;;;14.07;10.67;;;13.10;88.90;;;;;;6072522;23;20397;-67
2021/04/29 03:34:54;;;;;;;12.20;10.90;;;13.10;89.10;;;;;;6072423;23;20431;-67
2021/04/29 03:37:20;;;;;;;14.53;12.07;;;13.10;89.50;;;;;;6072638;23;20483;-67
2021/04/29 03:39:46;;;;;;;20.43;11.57;;;13.10;89.90;;;;;;6072897;23;20431;-67
2021/04/29 03:42:14;;;;;;;19.13;11.53;;;13.10;90.00;;;;;;6074239;23;20440;-67
2021/04/29 03:44:40;;;;;;;16.77;11.00;;;13.10;90.00;;;;;;6072855;23;20420;-67
2021/04/29 03:47:07;;;;;;;17.80;11.33;;;13.10;90.20;;;;;;6071799;23;20729;-66
2021/04/29 03:49:34;;;;;;;15.57;11.53;;;13.10;90.30;;;;;;6071912;23;20443;-66
2021/04/29 03:52:00;;;;;;;12.30;11.00;;;13.10;90.60;;;;;;6071447;23;20429;-68
2021/04/29 03:54:30;;;;;;;14.23;11.80;;;13.10;90.80;;;;;;6070963;23;20431;-67
2021/04/29 03:56:56;;;;;;;13.33;11.17;;;13.10;91.00;;;;;;6070856;23;20424;-67
2021/04/29 03:59:23;;;;;;;15.07;11.10;;;13.10;91.30;;;;;;6071405;23;20450;-66
2021/04/29 04:01:50;;;;;;;14.30;10.50;;;13.10;91.60;;;;;;6071153;23;20450;-66
2021/04/29 04:04:17;;;;;;;14.03;10.77;;;13.20;92.10;;;;;;6071040;23;20495;-66
2021/04/29 04:06:43;;;;;;;14.67;10.20;;;13.20;94.10;;;;;;6070677;23;20420;-67
2021/04/29 04:09:09;;;;;;;15.60;10.57;;;13.30;95.30;;;;;;6071038;23;20431;-65
2021/04/29 04:11:35;;;;;;;16.03;10.70;;;13.20;95.80;;;;;;6071282;23;20463;-66
2021/04/29 04:14:02;;;;;;;20.63;10.30;;;13.30;97.50;;;;;;6070314;23;20424;-67
2021/04/29 04:16:29;;;;;;;12.80;10.77;;;13.10;98.80;;;;;;6070925;23;20420;-66
2021/04/29 04:18:56;;;;;;;17.07;10.50;;;13.10;99.70;;;;;;6070818;23;20699;-66
2021/04/29 04:21:22;;;;;;;17.87;11.20;;;13.00;99.20;;;;;;6070581;23;20440;-66
2021/04/29 04:23:48;;;;;;;14.33;11.13;;;12.90;98.80;;;;;;6070591;23;20431;-66
2021/04/29 04:26:17;;;;;;;14.67;10.77;;;12.70;99.00;;;;;;6070628;23;20442;-66
2021/04/29 04:28:44;;;;;;;16.07;9.43;;;12.70;99.60;;;;;;6070427;23;20866;-66
2021/04/29 04:31:10;;;;;;;18.67;11.37;;;12.70;99.60;;;;;;6070263;23;20444;-67
2021/04/29 04:33:37;;;;;;;14.03;10.97;;;12.80;99.90;;;;;;6070611;23;20423;-66
2021/04/29 04:36:05;;;;;;;14.07;10.57;;;12.90;99.90;;;;;;6069898;23;20735;-65
2021/04/29 04:38:31;;;;;;;18.20;11.30;;;12.90;99.90;;;;;;6071245;23;20430;-69
2021/04/29 04:40:57;;;;;;;13.93;10.60;;;12.90;99.90;;;;;;6070489;23;20446;-69
2021/04/29 04:43:25;;;;;;;14.03;10.20;;;13.00;99.90;;;;;;6070243;23;20464;-69
2021/04/29 04:45:51;;;;;;;17.57;12.67;;;13.00;99.90;;;;;;6070397;23;20420;-68
2021/04/29 04:48:17;;;;;;;15.67;11.30;;;13.00;99.90;;;;;;6070801;23;20670;-69
2021/04/29 04:50:45;;;;;;;13.90;11.87;;;12.90;99.90;;;;;;6070544;23;20480;-69
2021/04/29 04:53:11;;;;;;;14.57;13.03;;;12.90;99.90;;;;;;6070746;23;20863;-70
2021/04/29 04:55:42;;;;;;;18.37;12.60;;;12.90;99.90;;;;;;6070466;23;20420;-69
2021/04/29 04:58:09;;;;;;;17.83;12.40;;;12.90;99.90;;;;;;6070183;23;20487;-69
2021/04/29 05:00:35;;;;;;;15.57;11.70;;;12.90;99.90;;;;;;6070489;23;20460;-69
2021/04/29 05:03:01;;;;;;;16.73;11.80;;;13.00;99.90;;;;;;6070424;23;20440;-69
2021/04/29 05:05:27;;;;;;;17.43;12.87;;;13.00;99.90;;;;;;6069817;23;20499;-69
2021/04/29 05:07:55;;;;;;;16.60;11.30;;;13.00;99.90;;;;;;6070771;23;20527;-68
2021/04/29 05:10:22;;;;;;;14.97;12.10;;;13.00;99.90;;;;;;6070809;23;20420;-68
2021/04/29 05:12:48;;;;;;;12.87;11.37;;;13.10;99.90;;;;;;6070660;23;20439;-68
2021/04/29 05:15:14;;;;;;;19.50;14.40;;;13.10;99.90;;;;;;6070270;23;20491;-69
2021/04/29 05:17:40;;;;;;;17.83;13.53;;;13.10;99.90;;;;;;6070778;23;20530;-69
2021/04/29 05:20:08;;;;;;;16.80;12.20;;;13.20;99.90;;;;;;6070098;23;20945;-70
2021/04/29 05:22:34;;;;;;;18.17;12.17;;;13.20;99.90;;;;;;6070508;23;20454;-70
2021/04/29 05:25:05;;;;;;;19.00;13.27;;;13.20;99.90;;;;;;6070617;23;20811;-68
2021/04/29 05:27:34;;;;;;;15.80;11.73;;;13.10;99.90;;;;;;6070093;23;20426;-70
2021/04/29 05:30:00;;;;;;;17.00;12.50;;;13.10;99.90;;;;;;6070446;23;20442;-69
2021/04/29 05:32:26;;;;;;;16.17;13.00;;;13.20;99.90;;;;;;6070094;23;20436;-69
2021/04/29 05:34:53;;;;;;;14.27;12.37;;;13.20;99.90;;;;;;6070496;23;20890;-69
2021/04/29 05:37:19;;;;;;;17.00;13.03;;;13.20;99.90;;;;;;6070476;23;20420;-70
2021/04/29 05:39:45;;;;;;;14.30;11.40;;;13.20;99.90;;;;;;6070279;23;20420;-70
2021/04/29 05:42:12;;;;;;;15.57;12.83;;;13.20;99.90;;;;;;6069785;23;20441;-69
2021/04/29 05:44:38;;;;;;;27.93;19.67;;;13.30;99.90;;;;;;6070118;23;20427;-70
2021/04/29 05:47:05;;;;;;;23.17;17.17;;;13.30;99.90;;;;;;6072048;23;20420;-69
2021/04/29 05:49:33;;;;;;;16.50;12.27;;;13.30;99.90;;;;;;6071160;23;20424;-69
2021/04/29 05:51:59;;;;;;;15.20;12.77;;;13.30;99.90;;;;;;6072405;23;20707;-68
2021/04/29 05:54:25;;;;;;;16.03;12.60;;;13.30;99.90;;;;;;6070373;23;20430;-69
2021/04/29 05:56:52;;;;;;;14.77;11.83;;;13.30;99.90;;;;;;6070715;23;20705;-69
2021/04/29 05:59:19;;;;;;;18.23;13.90;;;13.30;99.90;;;;;;6070191;23;20432;-69
2021/04/29 06:01:45;;;;;;;18.10;12.97;;;13.30;99.90;;;;;;6070589;23;20917;-71
2021/04/29 06:04:11;;;;;;;17.33;12.73;;;13.20;99.90;;;;;;6070460;23;20420;-70
2021/04/29 06:06:37;;;;;;;15.57;11.80;;;13.10;99.90;;;;;;6070941;23;20431;-70
2021/04/29 06:09:04;;;;;;;15.27;12.93;;;13.10;99.90;;;;;;6070325;23;20691;-70
2021/04/29 06:11:30;;;;;;;19.17;13.23;;;13.10;99.90;;;;;;6070685;23;20416;-70
2021/04/29 06:13:56;;;;;;;23.20;18.50;;;13.20;99.90;;;;;;6070505;23;20436;-70
2021/04/29 06:16:23;;;;;;;18.40;15.27;;;13.20;99.90;;;;;;6070828;23;20713;-70
2021/04/29 06:18:50;;;;;;;14.20;12.00;;;13.30;99.90;;;;;;6071755;23;20891;-70
2021/04/29 06:21:16;;;;;;;15.27;11.53;;;13.30;99.90;;;;;;6071859;23;20743;-69
2021/04/29 06:23:42;;;;;;;17.00;13.50;;;13.30;99.90;;;;;;6072160;23;20421;-70
2021/04/29 06:26:08;;;;;;;16.90;12.03;;;13.40;99.90;;;;;;6072305;23;20480;-69
2021/04/29 06:28:35;;;;;;;15.20;13.00;;;13.40;99.90;;;;;;6072896;23;20431;-70
2021/04/29 06:31:04;;;;;;;15.17;12.47;;;13.40;99.90;;;;;;6071373;23;20444;-69
2021/04/29 06:33:31;;;;;;;20.83;14.00;;;13.40;99.90;;;;;;6072046;23;20416;-70
2021/04/29 06:36:00;;;;;;;14.87;12.60;;;13.40;99.90;;;;;;6071778;23;20421;-69
2021/04/29 06:38:26;;;;;;;18.60;13.83;;;13.40;99.90;;;;;;6071552;23;20432;-71
2021/04/29 06:40:54;;;;;;;17.57;13.50;;;13.50;99.90;;;;;;6071320;23;20431;-70
2021/04/29 06:43:20;;;;;;;18.07;14.20;;;13.40;99.90;;;;;;6071070;23;20483;-69
2021/04/29 06:45:49;;;;;;;17.03;13.40;;;13.30;99.90;;;;;;6072126;23;20424;-69
2021/04/29 06:48:15;;;;;;;17.80;14.00;;;13.20;99.90;;;;;;6072198;23;20444;-69
2021/04/29 06:50:42;;;;;;;17.37;15.30;;;13.20;99.90;;;;;;6075854;23;20420;-70
2021/04/29 06:53:09;;;;;;;16.07;14.33;;;13.10;99.90;;;;;;6076540;23;20749;-70
2021/04/29 06:55:35;;;;;;;18.50;15.50;;;13.00;99.90;;;;;;6074524;23;20491;-69
2021/04/29 06:58:01;;;;;;;18.47;15.70;;;12.90;99.90;;;;;;6074683;23;20431;-69
2021/04/29 07:00:28;;;;;;;18.63;14.20;;;12.90;99.90;;;;;;6073580;23;20420;-70
2021/04/29 07:02:56;;;;;;;38.60;26.77;;;12.90;99.90;;;;;;6072233;23;20913;-70
2021/04/29 07:05:22;;;;;;;23.13;16.40;;;12.80;99.90;;;;;;6072754;23;20421;-69
2021/04/29 07:07:51;;;;;;;17.40;14.67;;;12.70;99.90;;;;;;6071181;23;20420;-69
2021/04/29 07:10:17;;;;;;;17.73;14.60;;;12.70;99.90;;;;;;6071567;23;20429;-69
2021/04/29 07:12:44;;;;;;;14.97;12.43;;;12.70;99.90;;;;;;6071437;23;20424;-70
2021/04/29 07:15:11;;;;;;;19.47;14.63;;;12.60;99.90;;;;;;6071774;23;20424;-68
2021/04/29 07:17:37;;;;;;;15.73;14.20;;;12.60;99.90;;;;;;6073365;23;20435;-69
2021/04/29 07:20:05;;;;;;;17.13;14.30;;;12.60;99.90;;;;;;6071626;23;20420;-69
2021/04/29 07:22:32;;;;;;;16.23;13.90;;;12.60;99.90;;;;;;6071611;23;20441;-69
2021/04/29 07:24:59;;;;;;;15.70;13.47;;;12.60;99.90;;;;;;6071434;23;20432;-70
2021/04/29 07:27:25;;;;;;;15.67;14.03;;;12.60;99.90;;;;;;6071929;23;20767;-68
2021/04/29 07:29:51;;;;;;;21.07;14.70;;;12.60;99.90;;;;;;6071442;23;20420;-70
2021/04/29 07:32:18;;;;;;;16.57;13.97;;;12.60;99.90;;;;;;6071234;23;20416;-69
2021/04/29 07:34:44;;;;;;;15.87;12.97;;;12.60;99.90;;;;;;6071565;23;20424;-70
2021/04/29 07:37:10;;;;;;;14.70;12.97;;;12.60;99.90;;;;;;6071825;23;20431;-69
2021/04/29 07:39:36;;;;;;;20.37;12.83;;;12.60;99.90;;;;;;6071338;23;20442;-70
2021/04/29 07:42:04;;;;;;;15.33;13.10;;;12.70;99.90;;;;;;6071212;23;20441;-69
2021/04/29 07:44:33;;;;;;;15.27;13.03;;;12.60;99.90;;;;;;6071247;23;20425;-70
2021/04/29 07:47:00;;;;;;;17.10;13.30;;;12.60;99.90;;;;;;6070947;23;20851;-70
2021/04/29 07:49:26;;;;;;;19.40;14.30;;;12.60;99.90;;;;;;6071515;23;20522;-69
2021/04/29 07:51:52;;;;;;;15.30;12.97;;;12.60;99.90;;;;;;6071978;23;20416;-70
2021/04/29 07:54:19;;;;;;;18.73;13.90;;;12.50;99.90;;;;;;6071813;23;20483;-69
2021/04/29 07:56:45;;;;;;;16.60;13.67;;;12.50;99.90;;;;;;6072406;23;20778;-70
2021/04/29 07:59:12;;;;;;;17.50;12.30;;;12.40;99.90;;;;;;6072783;23;20421;-69
2021/04/29 08:01:39;;;;;;;16.17;12.30;;;12.20;99.90;;;;;;6076816;23;20421;-68
2021/04/29 08:04:05;;;;;;;14.73;12.77;;;12.00;99.90;;;;;;6082292;23;20431;-70
2021/04/29 08:06:32;;;;;;;13.97;12.50;;;11.80;99.90;;;;;;6081364;23;20527;-70
2021/04/29 08:08:58;;;;;;;19.37;13.97;;;11.70;99.90;;;;;;6079403;23;20428;-70
2021/04/29 08:11:25;;;;;;;21.07;14.60;;;11.60;99.90;;;;;;6080602;23;20434;-70
2021/04/29 08:13:52;;;;;;;17.60;14.37;;;11.50;99.90;;;;;;6078508;23;20431;-69
2021/04/29 08:16:20;;;;;;;18.50;15.00;;;11.50;99.90;;;;;;6075796;23;20515;-70
2021/04/29 08:18:48;;;;;;;18.90;14.20;;;11.40;99.90;;;;;;6071856;23;20432;-70
2021/04/29 08:21:14;;;;;;;20.10;14.67;;;11.40;99.90;;;;;;6086695;23;20424;-70
2021/04/29 08:23:40;;;;;;;17.47;14.77;;;11.40;99.90;;;;;;6078809;23;20454;-69
2021/04/29 08:26:07;;;;;;;15.80;14.13;;;11.40;99.90;;;;;;6075892;23;20723;-70
2021/04/29 08:28:33;;;;;;;17.60;14.83;;;11.40;99.90;;;;;;6072448;23;20460;-69
2021/04/29 08:30:59;;;;;;;19.43;14.77;;;11.40;99.90;;;;;;6072217;23;20444;-69
2021/04/29 08:33:26;;;;;;;16.50;14.77;;;11.30;99.90;;;;;;6072392;23;20420;-69
2021/04/29 08:35:52;;;;;;;18.87;16.13;;;11.30;99.90;;;;;;6071827;23;20428;-70
2021/04/29 08:38:18;;;;;;;18.87;15.47;;;11.40;99.90;;;;;;6071545;23;20438;-70
2021/04/29 08:40:45;;;;;;;21.40;18.47;;;11.40;99.90;;;;;;6072182;23;20439;-70
2021/04/29 08:43:12;;;;;;;18.10;16.20;;;11.40;99.90;;;;;;6072453;23;20724;-69
2021/04/29 08:45:50;;;;;;;20.07;15.90;;;11.40;99.90;;;;;;6082336;23;20435;-71
2021/04/29 08:48:32;;;;;;;21.10;15.60;;;11.40;99.90;;;;;;6084995;23;20417;-71
2021/04/29 08:51:12;;;;;;;20.90;16.67;;;11.40;99.90;;;;;;6082037;23;20754;-71
2021/04/29 08:53:39;;;;;;;18.07;15.50;;;11.40;99.90;;;;;;6082383;23;20400;-71
2021/04/29 08:56:10;;;;;;;20.00;16.27;;;11.40;99.90;;;;;;6082505;23;20424;-71
2021/04/29 08:58:36;;;;;;;17.33;15.53;;;11.50;99.90;;;;;;6082009;23;20444;-69
2021/04/29 09:01:04;;;;;;;21.03;16.20;;;11.50;99.90;;;;;;6071542;23;20420;-71
2021/04/29 09:03:33;;;;;;;19.83;16.03;;;11.40;99.90;;;;;;6071581;23;20440;-70
2021/04/29 09:06:00;;;;;;;22.27;17.73;;;11.40;99.90;;;;;;6071197;23;20420;-69
2021/04/29 09:08:30;;;;;;;19.63;16.80;;;11.40;99.90;;;;;;6071208;23;20487;-69
2021/04/29 09:11:07;;;;;;;19.53;17.10;;;11.50;99.90;;;;;;6070697;23;20417;-69
2021/04/29 09:13:33;;;;;;;19.50;16.80;;;11.50;99.90;;;;;;6070845;23;20401;-69
2021/04/29 09:16:06;;;;;;;20.97;16.80;;;11.60;99.90;;;;;;6071124;23;20420;-69
2021/04/29 09:18:34;;;;;;;19.00;16.03;;;11.70;99.90;;;;;;6070923;23;20451;-68
2021/04/29 09:21:06;;;;;;;19.43;16.97;;;11.80;99.90;;;;;;6071068;23;20421;-70
2021/04/29 09:23:35;;;;;;;19.60;16.47;;;11.80;99.90;;;;;;6070627;23;20496;-69
2021/04/29 09:26:03;;;;;;;19.30;16.50;;;11.90;99.90;;;;;;6070841;23;20717;-70
2021/04/29 09:28:37;;;;;;;19.57;15.80;;;12.00;99.90;;;;;;6070628;23;20457;-69
2021/04/29 09:31:05;;;;;;;18.90;16.53;;;12.10;99.90;;;;;;6070721;23;20448;-70
2021/04/29 09:33:34;;;;;;;18.80;16.30;;;12.10;99.90;;;;;;6070908;23;20427;-68
2021/04/29 09:36:01;;;;;;;19.93;15.80;;;12.20;99.90;;;;;;6072232;23;20440;-69
2021/04/29 09:38:35;;;;;;;18.13;16.20;;;12.30;99.90;;;;;;6072047;23;20878;-69
2021/04/29 09:41:02;;;;;;;19.10;16.53;;;12.50;99.90;;;;;;6071771;23;20867;-68
2021/04/29 09:43:28;;;;;;;18.77;15.60;;;12.60;99.90;;;;;;6071298;23;20455;-70
2021/04/29 09:45:56;;;;;;;17.93;15.93;;;12.60;99.90;;;;;;6071835;23;20490;-70
2021/04/29 09:48:32;;;;;;;20.07;16.97;;;12.70;99.90;;;;;;6072235;23;20815;-70
2021/04/29 09:50:59;;;;;;;19.57;17.53;;;12.80;99.90;;;;;;6073690;23;20404;-70
2021/04/29 09:53:25;;;;;;;18.53;16.53;;;13.00;99.90;;;;;;6074540;23;20506;-69
2021/04/29 09:55:52;;;;;;;19.30;15.47;;;13.20;99.90;;;;;;6073468;23;20472;-69
2021/04/29 09:58:23;;;;;;;18.17;15.47;;;13.40;99.90;;;;;;6074486;23;20571;-69
2021/04/29 10:00:51;;;;;;;19.33;16.40;;;13.70;99.90;;;;;;6074228;23;20415;-69
2021/04/29 10:03:19;;;;;;;18.93;15.40;;;14.00;99.90;;;;;;6074480;23;20472;-69
2021/04/29 10:05:50;;;;;;;18.30;16.40;;;14.30;99.90;;;;;;6073942;23;20435;-69
2021/04/29 10:08:23;;;;;;;19.67;15.80;;;14.50;99.90;;;;;;6074587;23;20416;-70
2021/04/29 10:10:53;;;;;;;19.00;17.10;;;14.70;99.90;;;;;;6075154;23;20404;-69
2021/04/29 10:13:20;;;;;;;18.63;16.63;;;14.80;99.90;;;;;;6075739;23;20890;-68
2021/04/29 10:15:49;;;;;;;23.53;17.83;;;14.70;99.90;;;;;;6073892;23;20482;-70
2021/04/29 10:18:21;;;;;;;19.27;17.50;;;14.60;99.90;;;;;;6075065;23;20420;-71
2021/04/29 10:20:53;;;;;;;26.77;23.33;;;14.60;99.90;;;;;;6073117;23;20499;-69
2021/04/29 10:23:35;;;;;;;19.47;17.37;;;14.50;99.90;;;;;;6082872;23;20565;-70
2021/04/29 10:26:09;;;;;;;22.60;19.13;;;14.30;99.90;;;;;;6071206;23;20416;-70
2021/04/29 10:28:38;;;;;;;21.07;18.90;;;14.20;99.90;;;;;;6073649;23;20478;-72
2021/04/29 10:31:18;;;;;;;21.00;18.77;;;14.20;99.90;;;;;;6072951;23;20440;-70
2021/04/29 10:33:50;;;;;;;21.23;18.50;;;14.20;99.90;;;;;;6072830;23;20396;-67
2021/04/29 10:36:16;;;;;;;24.00;20.17;;;14.20;99.90;;;;;;6071720;23;20428;-67
2021/04/29 10:38:43;;;;;;;23.20;20.70;;;14.10;99.90;;;;;;6072150;23;20416;-67
2021/04/29 10:41:21;;;;;;;23.77;21.23;;;14.10;99.90;;;;;;6071728;23;20417;-66
2021/04/29 10:43:49;;;;;;;22.63;19.90;;;14.10;99.90;;;;;;6071719;23;20779;-66
2021/04/29 10:46:30;;;;;;;21.70;18.97;;;14.10;99.90;;;;;;6071402;23;20420;-67
2021/04/29 10:48:58;;;;;;;23.33;20.87;;;14.20;99.90;;;;;;6080807;23;20482;-67
2021/04/29 10:51:35;;;;;;;22.47;18.70;;;14.40;99.90;;;;;;6071490;23;20431;-67
2021/04/29 10:54:20;;;;;;;24.30;20.40;;;14.40;99.90;;;;;;6071810;23;20404;-69
2021/04/29 10:57:04;;;;;;;23.20;20.77;;;14.40;99.90;;;;;;6071713;23;20488;-69
2021/04/29 10:59:39;;;;;;;26.47;22.70;;;14.60;99.90;;;;;;6071451;23;20664;-69
2021/04/29 11:02:05;;;;;;;28.40;22.73;;;14.70;99.90;;;;;;6071322;23;20447;-69
2021/04/29 11:04:40;;;;;;;26.63;22.93;;;15.00;99.90;;;;;;6071230;23;20424;-69
2021/04/29 11:07:11;;;;;;;26.03;21.63;;;15.30;99.90;;;;;;6071479;23;20499;-68
2021/04/29 11:09:38;;;;;;;25.70;21.83;;;15.40;99.90;;;;;;6071925;23;20417;-69
2021/04/29 11:12:07;;;;;;;38.67;30.73;;;15.50;99.90;;;;;;6071280;23;20423;-68
2021/04/29 11:14:45;;;;;;;27.73;22.80;;;15.60;99.90;;;;;;6071621;23;20420;-70
2021/04/29 11:17:22;;;;;;;28.50;23.57;;;15.50;99.90;;;;;;6071498;23;20535;-71
2021/04/29 11:19:56;;;;;;;26.50;22.30;;;15.50;99.90;;;;;;6071220;23;20420;-70
2021/04/29 11:22:25;;;;;;;26.20;23.50;;;15.60;99.90;;;;;;6071480;23;20428;-69
2021/04/29 11:24:54;;;;;;;25.77;22.20;;;15.50;99.90;;;;;;6070595;23;20909;-69
2021/04/29 11:27:26;;;;;;;25.80;22.80;;;15.50;99.90;;;;;;6071071;23;20433;-70
2021/04/29 11:30:00;;;;;;;24.83;22.13;;;15.80;99.90;;;;;;6070654;23;20409;-69
2021/04/29 11:32:27;;;;;;;24.03;21.53;;;16.20;99.90;;;;;;6072007;23;20404;-69
2021/04/29 11:34:54;;;;;;;26.23;23.43;;;16.60;99.90;;;;;;6070574;23;20892;-68
2021/04/29 11:37:21;;;;;;;29.57;23.63;;;16.70;99.90;;;;;;6070908;23;20443;-68
2021/04/29 11:39:57;;;;;;;27.13;24.20;;;16.80;99.90;;;;;;6070961;23;20421;-68
2021/04/29 11:42:25;;;;;;;30.33;23.60;;;16.60;99.90;;;;;;6070860;23;20429;-68
2021/04/29 11:44:52;;;;;;;23.13;20.63;;;16.30;99.90;;;;;;6071085;23;20792;-69
2021/04/29 11:47:18;;;;;;;25.17;22.47;;;16.30;99.90;;;;;;6070727;23;20420;-69
2021/04/29 11:49:44;;;;;;;23.33;20.97;;;16.70;99.90;;;;;;6070338;23;20907;-70
2021/04/29 11:52:10;;;;;;;24.33;21.67;;;16.90;99.90;;;;;;6070730;23;20428;-69
2021/04/29 11:54:47;;;;;;;29.57;21.40;;;16.80;99.90;;;;;;6070792;23;20420;-69
2021/04/29 11:57:14;;;;;;;23.93;21.43;;;16.70;99.90;;;;;;6071320;23;20679;-68
2021/04/29 11:59:41;;;;;;;25.33;22.67;;;16.50;99.90;;;;;;6070693;23;20895;-69
2021/04/29 12:02:07;;;;;;;22.80;20.30;;;16.30;99.90;;;;;;6070541;23;20441;-69
2021/04/29 12:04:34;;;;;;;20.40;18.30;;;16.30;99.90;;;;;;6070619;23;20516;-69
2021/04/29 12:07:02;;;;;;;21.20;19.00;;;16.20;99.90;;;;;;6070314;23;20427;-69
2021/04/29 12:09:29;;;;;;;20.70;18.50;;;16.40;99.90;;;;;;6070264;23;20424;-69
2021/04/29 12:11:56;;;;;;;25.10;17.63;;;16.70;99.90;;;;;;6070422;23;20424;-69
2021/04/29 12:14:24;;;;;;;22.83;18.80;;;17.20;99.90;;;;;;6070430;23;20430;-69
2021/04/29 12:16:53;;;;;;;21.60;19.33;;;17.30;99.90;;;;;;6070427;23;20421;-70
2021/04/29 12:19:25;;;;;;;20.90;18.70;;;17.40;99.90;;;;;;6072373;23;20428;-69
2021/04/29 12:21:51;;;;;;;20.70;18.53;;;17.40;99.90;;;;;;6072597;23;20475;-70
2021/04/29 12:24:18;;;;;;;22.13;19.83;;;17.50;99.90;;;;;;6073035;23;20432;-70
2021/04/29 12:26:45;;;;;;;19.37;17.47;;;17.40;99.90;;;;;;6073971;23;20431;-69
2021/04/29 12:29:13;;;;;;;19.53;17.57;;;17.50;99.90;;;;;;6072852;23;20427;-68
2021/04/29 12:31:52;;;;;;;21.30;19.20;;;17.50;99.90;;;;;;6072982;23;20510;-69
2021/04/29 12:34:19;;;;;;;19.77;17.77;;;17.70;99.90;;;;;;6074690;23;20405;-70